createdAt,value
2019-03-29T00:00:26.797Z,100557.41
2019-03-29T00:02:59.122Z,100556.12
2019-03-29T00:05:34.237Z,100557.22
2019-03-29T00:08:09.084Z,100556.77
2019-03-29T00:10:47.301Z,100549.84
2019-03-29T00:13:19.892Z,100553.61
2019-03-29T00:15:52.276Z,100560.21
2019-03-29T00:18:24.682Z,100557.41
2019-03-29T00:20:56.977Z,100551.08
2019-03-29T00:23:29.264Z,100553.11
2019-03-29T00:26:01.973Z,100549.27
2019-03-29T00:28:34.619Z,100553.39
2019-03-29T00:31:06.880Z,100549.17
2019-03-29T00:33:39.351Z,100551.56
2019-03-29T00:36:11.662Z,100551.58
2019-03-29T00:38:43.909Z,100547.62
2019-03-29T00:41:16.213Z,100547.81
2019-03-29T00:43:57.723Z,100544.42
2019-03-29T00:46:30.325Z,100540.39
2019-03-29T00:49:02.868Z,100540.13
2019-03-29T00:51:35.234Z,100533.02
2019-03-29T00:54:08.535Z,100534.00
2019-03-29T00:56:41.148Z,100533.08
2019-03-29T00:59:16.402Z,100543.97
2019-03-29T01:01:52.335Z,100538.95
2019-03-29T01:04:24.336Z,100539.89
2019-03-29T01:06:56.644Z,100535.40
2019-03-29T01:09:28.902Z,100533.73
2019-03-29T01:12:01.235Z,100532.13
2019-03-29T01:14:45.187Z,100538.66
2019-03-29T01:17:28.976Z,100539.98
2019-03-29T01:20:02.816Z,100532.59
2019-03-29T01:22:37.175Z,100535.49
2019-03-29T01:25:09.538Z,100534.33
2019-03-29T01:27:41.871Z,100535.11
2019-03-29T01:30:14.190Z,100537.19
2019-03-29T01:32:47.786Z,100533.30
2019-03-29T01:35:20.066Z,100537.45
2019-03-29T01:37:52.430Z,100535.45
2019-03-29T01:40:24.699Z,100536.58
2019-03-29T01:42:57.023Z,100530.86
2019-03-29T01:45:29.283Z,100533.51
2019-03-29T01:48:02.888Z,100532.46
2019-03-29T01:50:35.358Z,100525.77
2019-03-29T01:53:07.660Z,100529.27
2019-03-29T01:55:48.164Z,100530.53
2019-03-29T01:58:25.133Z,100532.69
2019-03-29T02:00:59.341Z,100528.91
2019-03-29T02:03:31.634Z,100523.81
2019-03-29T02:06:20.247Z,100524.17
2019-03-29T02:09:40.674Z,100522.36
2019-03-29T02:12:53.316Z,100523.61
2019-03-29T02:15:53.391Z,100524.44
2019-03-29T02:18:25.955Z,100520.25
2019-03-29T02:20:58.657Z,100487.72
2019-03-29T02:23:30.961Z,100520.62
2019-03-29T02:26:03.354Z,100517.09
2019-03-29T02:28:51.477Z,100522.66
2019-03-29T02:31:25.826Z,100526.72
2019-03-29T02:34:04.581Z,100519.62
2019-03-29T02:36:42.977Z,100518.48
2019-03-29T02:39:15.639Z,100522.61
2019-03-29T02:41:47.892Z,100517.72
2019-03-29T02:45:27.705Z,100515.33
2019-03-29T02:48:20.466Z,100511.20
2019-03-29T02:50:52.833Z,100509.64
2019-03-29T02:53:25.226Z,100504.19
2019-03-29T02:55:57.485Z,100503.39
2019-03-29T02:58:29.773Z,100506.38
2019-03-29T03:01:02.044Z,100509.88
2019-03-29T03:03:34.702Z,100509.08
2019-03-29T03:06:06.942Z,100495.39
2019-03-29T03:08:39.303Z,100500.77
2019-03-29T03:11:11.610Z,100500.66
2019-03-29T03:13:43.878Z,100494.48
2019-03-29T03:16:16.193Z,100500.78
2019-03-29T03:18:50.179Z,100496.52
2019-03-29T03:21:22.501Z,100502.48
2019-03-29T03:23:54.800Z,100493.14
2019-03-29T03:26:27.152Z,100494.59
2019-03-29T03:28:59.496Z,100492.97
2019-03-29T03:31:32.209Z,100496.84
2019-03-29T03:34:04.629Z,100489.31
2019-03-29T03:36:37.348Z,100492.98
2019-03-29T03:39:10.221Z,100493.38
2019-03-29T03:41:42.524Z,100487.14
2019-03-29T03:44:14.781Z,100484.61
2019-03-29T03:46:47.459Z,100494.20
2019-03-29T03:49:19.748Z,100490.65
2019-03-29T03:51:52.031Z,100486.09
2019-03-29T03:54:24.387Z,100489.19
2019-03-29T03:56:56.664Z,100488.66
2019-03-29T03:59:28.960Z,100488.52
2019-03-29T04:02:01.241Z,100489.88
2019-03-29T04:04:37.452Z,100484.07
2019-03-29T04:07:07.500Z,100479.06
2019-03-29T04:09:49.481Z,100479.32
2019-03-29T04:12:14.269Z,100484.52
2019-03-29T04:14:46.554Z,100481.56
2019-03-29T04:17:18.845Z,100486.03
2019-03-29T04:19:51.164Z,100485.20
2019-03-29T04:22:23.401Z,100485.83
2019-03-29T04:24:55.649Z,100489.08
2019-03-29T04:27:27.925Z,100482.31
2019-03-29T04:30:00.587Z,100484.81
2019-03-29T04:32:34.179Z,100484.95
2019-03-29T04:35:06.467Z,100480.13
2019-03-29T04:37:40.072Z,100482.20
2019-03-29T04:40:12.322Z,100490.77
2019-03-29T04:42:44.607Z,100487.16
2019-03-29T04:45:16.955Z,100490.59
2019-03-29T04:47:49.245Z,100490.57
2019-03-29T04:50:22.145Z,100487.67
2019-03-29T04:52:54.459Z,100492.20
2019-03-29T04:55:26.720Z,100485.02
2019-03-29T04:57:59.605Z,100481.63
2019-03-29T05:00:31.980Z,100481.69
2019-03-29T05:03:04.656Z,100485.00
2019-03-29T05:05:36.913Z,100483.77
2019-03-29T05:08:09.204Z,100475.72
2019-03-29T05:10:41.441Z,100485.73
2019-03-29T05:13:13.751Z,100487.76
2019-03-29T05:15:46.045Z,100484.45
2019-03-29T05:18:18.301Z,100478.01
2019-03-29T05:20:50.592Z,100481.80
2019-03-29T05:23:22.863Z,100483.33
2019-03-29T05:25:55.255Z,100493.42
2019-03-29T05:28:27.527Z,100482.86
2019-03-29T05:30:59.832Z,100483.64
2019-03-29T05:33:32.166Z,100483.48
2019-03-29T05:36:04.859Z,100491.62
2019-03-29T05:38:37.130Z,100485.61
2019-03-29T05:41:09.411Z,100489.73
2019-03-29T05:43:41.691Z,100488.09
2019-03-29T05:46:14.514Z,100491.59
2019-03-29T05:48:46.810Z,100486.56
2019-03-29T05:51:19.818Z,100493.14
2019-03-29T05:53:52.103Z,100491.23
2019-03-29T05:56:24.237Z,100495.77
2019-03-29T05:58:56.336Z,100493.44
2019-03-29T06:01:28.559Z,100500.23
2019-03-29T06:04:00.660Z,100500.56
2019-03-29T06:06:32.762Z,100500.31
2019-03-29T06:09:06.671Z,100502.77
2019-03-29T06:11:38.792Z,100504.95
2019-03-29T06:14:10.905Z,100501.60
2019-03-29T06:16:44.163Z,100502.41
2019-03-29T06:19:16.527Z,100507.80
2019-03-29T06:21:48.759Z,100515.17
2019-03-29T06:24:20.873Z,100511.53
2019-03-29T06:26:54.218Z,100518.62
2019-03-29T06:29:26.342Z,100514.68
2019-03-29T06:31:58.453Z,100513.20
2019-03-29T06:34:30.643Z,100515.41
2019-03-29T06:37:03.341Z,100517.53
2019-03-29T06:39:35.482Z,100514.52
2019-03-29T06:42:07.591Z,100520.95
2019-03-29T06:44:39.686Z,100520.28
2019-03-29T06:47:11.786Z,100525.91
2019-03-29T06:49:45.299Z,100524.33
2019-03-29T06:52:17.422Z,100525.80
2019-03-29T06:54:49.539Z,100529.66
2019-03-29T06:57:21.641Z,100529.17
2019-03-29T06:59:53.764Z,100533.59
2019-03-29T07:02:25.927Z,100531.74
2019-03-29T07:04:58.159Z,100533.27
2019-03-29T07:07:30.309Z,100531.20
2019-03-29T07:10:03.255Z,100533.62
2019-03-29T07:12:35.526Z,100535.71
2019-03-29T07:15:08.107Z,100530.96
2019-03-29T07:17:40.634Z,100526.94
2019-03-29T07:20:12.733Z,100531.57
2019-03-29T07:22:44.887Z,100536.17
2019-03-29T07:25:20.411Z,100527.69
2019-03-29T07:27:57.177Z,100525.86
2019-03-29T07:30:31.638Z,100527.39
2019-03-29T07:33:07.595Z,100523.33
2019-03-29T07:35:40.622Z,100521.09
2019-03-29T07:38:15.428Z,100525.42
2019-03-29T07:40:47.711Z,100526.29
2019-03-29T07:43:20.085Z,100527.01
2019-03-29T07:45:52.206Z,100529.05
2019-03-29T07:48:24.322Z,100519.70
2019-03-29T07:50:56.886Z,100526.02
2019-03-29T07:53:29.086Z,100523.67
2019-03-29T07:56:01.303Z,100518.37
2019-03-29T07:58:35.340Z,100515.13
2019-03-29T08:01:08.367Z,100520.53
2019-03-29T08:03:40.677Z,100515.67
2019-03-29T08:06:12.936Z,100520.40
2019-03-29T08:08:45.196Z,100523.16
2019-03-29T08:11:25.979Z,100519.65
2019-03-29T08:13:51.796Z,100517.31
2019-03-29T08:16:24.196Z,100510.72
2019-03-29T08:18:56.454Z,100514.78
2019-03-29T08:21:28.720Z,100510.59
2019-03-29T08:24:00.978Z,100503.29
2019-03-29T08:26:33.304Z,100511.91
2019-03-29T08:29:05.799Z,100508.47
2019-03-29T08:31:38.081Z,100501.67
2019-03-29T08:34:10.396Z,100498.66
2019-03-29T08:36:42.691Z,100492.23
2019-03-29T08:39:27.361Z,100495.02
2019-03-29T08:41:59.408Z,100497.54
2019-03-29T08:44:23.036Z,100496.38
2019-03-29T08:46:55.287Z,100497.63
2019-03-29T08:49:27.535Z,100496.45
2019-03-29T08:52:00.242Z,100493.56
2019-03-29T08:54:32.949Z,100497.08
2019-03-29T08:57:05.211Z,100496.68
2019-03-29T08:59:37.461Z,100502.42
2019-03-29T09:02:09.699Z,100493.59
2019-03-29T09:04:41.965Z,100504.83
2019-03-29T09:07:14.403Z,100503.20
2019-03-29T09:09:46.723Z,100499.10
2019-03-29T09:12:19.003Z,100495.36
2019-03-29T09:14:51.381Z,100495.32
2019-03-29T09:17:23.705Z,100496.86
2019-03-29T09:19:55.976Z,100491.73
2019-03-29T09:22:28.629Z,100491.70
2019-03-29T09:25:00.954Z,100491.73
2019-03-29T09:27:33.273Z,100484.92
2019-03-29T09:30:05.517Z,100488.73
2019-03-29T09:32:38.263Z,100480.17
2019-03-29T09:35:11.543Z,100488.58
2019-03-29T09:37:43.950Z,100484.50
2019-03-29T09:40:16.217Z,100483.52
2019-03-29T09:42:52.237Z,100483.39
2019-03-29T09:45:22.520Z,100479.72
2019-03-29T09:47:56.026Z,100480.19
2019-03-29T09:50:29.605Z,100480.38
2019-03-29T09:53:01.879Z,100473.42
2019-03-29T09:55:35.741Z,100471.06
2019-03-29T09:58:08.043Z,100471.75
2019-03-29T10:00:40.290Z,100469.97
2019-03-29T10:03:13.019Z,100472.66
2019-03-29T10:05:45.443Z,100469.07
2019-03-29T10:08:17.703Z,100463.60
2019-03-29T10:10:50.038Z,100468.25
2019-03-29T10:13:22.775Z,100456.95
2019-03-29T10:15:55.463Z,100459.20
2019-03-29T10:18:27.724Z,100459.38
2019-03-29T10:21:00.050Z,100458.27
2019-03-29T10:23:32.376Z,100459.73
2019-03-29T10:26:05.198Z,100452.52
2019-03-29T10:28:37.502Z,100454.05
2019-03-29T10:31:09.745Z,100448.63
2019-03-29T10:33:41.993Z,100445.48
2019-03-29T10:36:14.372Z,100446.83
2019-03-29T10:38:47.047Z,100441.80
2019-03-29T10:41:22.536Z,100436.47
2019-03-29T10:43:54.452Z,100434.27
2019-03-29T10:46:26.769Z,100438.14
2019-03-29T10:48:59.028Z,100436.64
2019-03-29T10:51:32.539Z,100432.50
2019-03-29T10:54:06.066Z,100428.22
2019-03-29T10:56:38.356Z,100430.28
2019-03-29T10:59:10.697Z,100427.33
2019-03-29T11:01:42.931Z,100421.47
2019-03-29T11:04:15.231Z,100424.30
2019-03-29T11:06:47.519Z,100415.22
2019-03-29T11:09:19.815Z,100417.31
2019-03-29T11:11:52.181Z,100412.71
2019-03-29T11:14:24.458Z,100418.98
2019-03-29T11:16:56.733Z,100409.06
2019-03-29T11:19:29.094Z,100404.49
2019-03-29T11:22:01.344Z,100399.89
2019-03-29T11:24:33.575Z,100402.02
2019-03-29T11:27:05.882Z,100397.88
2019-03-29T11:29:38.326Z,100395.27
2019-03-29T11:32:10.585Z,100386.85
2019-03-29T11:34:42.916Z,100391.42
2019-03-29T11:37:15.303Z,100383.16
2019-03-29T11:39:48.617Z,100387.23
2019-03-29T11:42:20.978Z,100379.91
2019-03-29T11:44:53.325Z,100380.16
2019-03-29T11:47:25.571Z,100380.52
2019-03-29T11:49:57.838Z,100374.62
2019-03-29T11:52:33.767Z,100371.78
2019-03-29T11:55:05.399Z,100363.55
2019-03-29T11:57:37.678Z,100362.13
2019-03-29T12:00:11.254Z,100356.25
2019-03-29T12:02:43.572Z,100356.15
2019-03-29T12:05:15.890Z,100357.23
2019-03-29T12:07:48.584Z,100355.72
2019-03-29T12:10:20.827Z,100346.63
2019-03-29T12:12:53.071Z,100342.19
2019-03-29T12:15:25.723Z,100339.86
2019-03-29T12:17:57.998Z,100340.50
2019-03-29T12:20:30.289Z,100333.20
2019-03-29T12:23:02.596Z,100333.53
2019-03-29T12:25:36.427Z,100326.78
2019-03-29T12:28:08.782Z,100324.89
2019-03-29T12:30:41.594Z,100317.92
2019-03-29T12:33:13.885Z,100315.77
2019-03-29T12:35:47.085Z,100316.23
2019-03-29T12:38:19.847Z,100313.83
2019-03-29T12:40:52.138Z,100309.12
2019-03-29T12:43:24.391Z,100307.12
2019-03-29T12:45:56.644Z,100303.98
2019-03-29T12:48:29.370Z,100305.34
2019-03-29T12:51:01.773Z,100300.33
2019-03-29T12:53:34.044Z,100297.11
2019-03-29T12:56:06.322Z,100299.86
2019-03-29T12:58:38.648Z,100292.53
2019-03-29T13:01:10.898Z,100291.25
2019-03-29T13:03:43.555Z,100289.78
2019-03-29T13:06:15.841Z,100284.87
2019-03-29T13:08:48.638Z,100287.19
2019-03-29T13:11:20.927Z,100287.44
2019-03-29T13:13:53.193Z,100293.77
2019-03-29T13:16:27.549Z,100282.67
2019-03-29T13:18:59.503Z,100283.48
2019-03-29T13:21:31.848Z,100272.64
2019-03-29T13:24:05.389Z,100270.52
2019-03-29T13:26:37.749Z,100266.45
2019-03-29T13:29:09.997Z,100260.94
2019-03-29T13:31:42.286Z,100257.96
2019-03-29T13:34:14.600Z,100256.80
2019-03-29T13:36:46.845Z,100257.87
2019-03-29T13:39:19.139Z,100250.27
2019-03-29T13:41:51.381Z,100247.84
2019-03-29T13:44:25.413Z,100239.12
2019-03-29T13:46:57.690Z,100239.20
2019-03-29T13:49:30.481Z,100229.55
2019-03-29T13:52:02.770Z,100226.14
2019-03-29T13:54:36.987Z,100226.75
2019-03-29T13:57:09.245Z,100224.92
2019-03-29T13:59:41.529Z,100224.35
2019-03-29T14:02:13.776Z,100227.00
2019-03-29T14:04:46.017Z,100213.32
2019-03-29T14:07:18.259Z,100214.17
2019-03-29T14:09:50.511Z,100218.16
2019-03-29T14:12:22.812Z,100202.05
2019-03-29T14:14:55.053Z,100203.58
2019-03-29T14:17:28.477Z,100200.64
2019-03-29T14:20:00.716Z,100193.66
2019-03-29T14:22:33.074Z,100202.42
2019-03-29T14:25:06.955Z,100200.55
2019-03-29T14:27:39.262Z,100197.83
2019-03-29T14:30:12.926Z,100192.41
2019-03-29T14:32:45.625Z,100193.80
2019-03-29T14:35:17.886Z,100187.35
2019-03-29T14:37:50.139Z,100183.28
2019-03-29T14:40:22.417Z,100192.70
2019-03-29T14:42:54.730Z,100183.63
2019-03-29T14:45:26.996Z,100179.73
2019-03-29T14:47:59.270Z,100181.98
2019-03-29T14:50:31.517Z,100173.27
2019-03-29T14:53:04.875Z,100176.21
2019-03-29T14:55:37.213Z,100171.78
2019-03-29T14:58:09.598Z,100171.62
2019-03-29T15:00:43.285Z,100162.91
2019-03-29T15:03:15.732Z,100164.05
2019-03-29T15:05:47.996Z,100164.20
2019-03-29T15:08:20.260Z,100168.09
2019-03-29T15:10:53.007Z,100165.42
2019-03-29T15:13:25.271Z,100168.64
2019-03-29T15:15:57.715Z,100161.97
2019-03-29T15:18:30.115Z,100161.65
2019-03-29T15:21:02.499Z,100168.95
2019-03-29T15:23:34.831Z,100163.14
2019-03-29T15:26:07.077Z,100163.61
2019-03-29T15:28:39.358Z,100166.34
2019-03-29T15:31:11.667Z,100168.93
2019-03-29T15:33:43.915Z,100166.54
2019-03-29T15:36:16.267Z,100167.42
2019-03-29T15:38:48.542Z,100163.64
2019-03-29T15:41:20.928Z,100172.32
2019-03-29T15:43:53.640Z,100165.31
2019-03-29T15:46:25.915Z,100160.66
2019-03-29T15:48:59.065Z,100161.26
2019-03-29T15:51:31.380Z,100166.33
2019-03-29T15:54:03.691Z,100170.16
2019-03-29T15:56:35.943Z,100172.39
2019-03-29T15:59:09.939Z,100167.17
2019-03-29T16:01:42.207Z,100167.75
2019-03-29T16:04:14.464Z,100172.37
2019-03-29T16:06:46.846Z,100171.49
2019-03-29T16:09:19.098Z,100169.87
2019-03-29T16:11:51.801Z,100171.12
2019-03-29T16:14:24.083Z,100165.16
2019-03-29T16:16:56.334Z,100174.97
2019-03-29T16:19:28.778Z,100172.00
2019-03-29T16:22:01.040Z,100175.46
2019-03-29T16:24:33.394Z,100171.27
2019-03-29T16:27:07.595Z,100171.84
2019-03-29T16:29:40.067Z,100170.53
2019-03-29T16:32:12.375Z,100172.16
2019-03-29T16:34:44.760Z,100169.73
2019-03-29T16:37:17.053Z,100183.73
2019-03-29T16:39:50.620Z,100179.50
2019-03-29T16:42:22.869Z,100178.06
2019-03-29T16:44:55.482Z,100185.18
2019-03-29T16:47:27.756Z,100185.67
2019-03-29T16:50:00.401Z,100183.89
2019-03-29T16:52:32.677Z,100180.77
2019-03-29T16:55:12.995Z,100191.47
2019-03-29T16:57:40.206Z,100196.72
2019-03-29T17:00:13.078Z,100192.82
2019-03-29T17:02:45.351Z,100189.86
2019-03-29T17:05:17.650Z,100193.73
2019-03-29T17:07:49.906Z,100194.37
2019-03-29T17:10:22.282Z,100192.61
2019-03-29T17:12:54.699Z,100192.16
2019-03-29T17:15:26.986Z,100195.77
2019-03-29T17:17:59.248Z,100192.59
2019-03-29T17:20:31.637Z,100193.24
2019-03-29T17:23:03.932Z,100192.77
2019-03-29T17:25:36.676Z,100194.05
2019-03-29T17:28:09.222Z,100196.16
2019-03-29T17:30:44.916Z,100197.87
2019-03-29T17:33:17.177Z,100202.23
2019-03-29T17:35:49.493Z,100208.31
2019-03-29T17:38:21.808Z,100200.27
2019-03-29T17:40:54.087Z,100205.47
2019-03-29T17:43:26.380Z,100201.17
2019-03-29T17:45:58.640Z,100208.01
2019-03-29T17:48:30.945Z,100205.05
2019-03-29T17:51:03.330Z,100208.57
2019-03-29T17:53:35.733Z,100215.35
2019-03-29T17:56:08.161Z,100213.39
2019-03-29T17:58:40.571Z,100220.21
2019-03-29T18:01:12.871Z,100224.20
2019-03-29T18:03:45.185Z,100219.95
2019-03-29T18:06:17.473Z,100221.98
2019-03-29T18:08:49.926Z,100217.55
2019-03-29T18:11:22.231Z,100224.28
2019-03-29T18:13:54.574Z,100224.23
2019-03-29T18:16:30.920Z,100228.67
2019-03-29T18:19:00.870Z,100233.37
2019-03-29T18:21:33.296Z,100234.28
2019-03-29T18:24:05.564Z,100228.22
2019-03-29T18:26:37.850Z,100231.64
2019-03-29T18:29:10.100Z,100232.52
2019-03-29T18:31:42.411Z,100238.32
2019-03-29T18:34:14.791Z,100231.68
2019-03-29T18:36:47.356Z,100231.36
2019-03-29T18:39:21.557Z,100229.65
2019-03-29T18:41:54.257Z,100234.30
2019-03-29T18:44:26.516Z,100231.52
2019-03-29T18:46:58.955Z,100237.00
2019-03-29T18:49:31.245Z,100236.94
2019-03-29T18:52:05.710Z,100240.34
2019-03-29T18:54:37.963Z,100245.45
2019-03-29T18:57:10.694Z,100239.38
2019-03-29T18:59:42.939Z,100241.91
2019-03-29T19:02:16.343Z,100250.17
2019-03-29T19:04:48.961Z,100248.45
2019-03-29T19:07:33.243Z,100250.13
2019-03-29T19:10:05.909Z,100252.30
2019-03-29T19:12:38.297Z,100250.91
2019-03-29T19:15:10.753Z,100261.69
2019-03-29T19:17:42.995Z,100266.91
2019-03-29T19:20:26.785Z,100269.76
2019-03-29T19:22:49.277Z,100266.09
2019-03-29T19:25:21.579Z,100264.59
2019-03-29T19:27:53.859Z,100265.55
2019-03-29T19:30:26.161Z,100268.94
2019-03-29T19:32:58.565Z,100273.23
2019-03-29T19:35:30.883Z,100276.80
2019-03-29T19:38:03.226Z,100279.86
2019-03-29T19:40:35.534Z,100275.41
2019-03-29T19:43:07.805Z,100275.52
2019-03-29T19:45:40.178Z,100271.73
2019-03-29T19:48:14.113Z,100275.61
2019-03-29T19:50:46.423Z,100277.74
2019-03-29T19:53:18.730Z,100281.92
2019-03-29T19:55:51.020Z,100287.30
2019-03-29T19:58:23.366Z,100285.27
2019-03-29T20:00:55.614Z,100283.36
2019-03-29T20:03:27.957Z,100286.81
2019-03-29T20:06:00.274Z,100293.92
2019-03-29T20:08:32.631Z,100298.00
2019-03-29T20:11:04.901Z,100306.50
2019-03-29T20:13:38.268Z,100321.39
2019-03-29T20:16:10.563Z,100315.39
2019-03-29T20:18:42.863Z,100312.16
2019-03-29T20:21:15.170Z,100315.69
2019-03-29T20:23:47.468Z,100315.05
2019-03-29T20:26:19.788Z,100322.41
2019-03-29T20:28:52.094Z,100324.25
2019-03-29T20:31:24.363Z,100320.57
2019-03-29T20:33:56.778Z,100324.58
2019-03-29T20:36:29.144Z,100325.70
2019-03-29T20:39:01.458Z,100321.23
2019-03-29T20:41:35.525Z,100323.90
2019-03-29T20:44:07.782Z,100325.83
2019-03-29T20:46:40.164Z,100329.81
2019-03-29T20:49:12.450Z,100323.27
2019-03-29T20:51:44.788Z,100322.58
2019-03-29T20:54:18.182Z,100322.51
2019-03-29T20:56:50.496Z,100322.98
2019-03-29T20:59:25.354Z,100323.62
2019-03-29T21:01:58.074Z,100317.53
2019-03-29T21:04:30.368Z,100317.89
2019-03-29T21:07:02.843Z,100320.83
2019-03-29T21:09:35.126Z,100319.52
2019-03-29T21:12:07.488Z,100319.84
2019-03-29T21:14:40.278Z,100321.30
2019-03-29T21:17:13.148Z,100316.70
2019-03-29T21:19:45.524Z,100317.16
2019-03-29T21:22:17.990Z,100316.05
2019-03-29T21:24:50.346Z,100316.89
2019-03-29T21:27:22.630Z,100319.47
2019-03-29T21:29:54.974Z,100318.30
2019-03-29T21:32:27.258Z,100319.42
2019-03-29T21:34:59.599Z,100324.85
2019-03-29T21:37:32.076Z,100322.08
2019-03-29T21:40:04.987Z,100324.73
2019-03-29T21:42:38.328Z,100330.20
2019-03-29T21:45:10.675Z,100328.14
2019-03-29T21:47:43.001Z,100325.95
2019-03-29T21:50:16.115Z,100325.88
2019-03-29T21:52:48.457Z,100328.80
2019-03-29T21:55:20.795Z,100323.66
2019-03-29T21:57:53.625Z,100324.64
2019-03-29T22:00:25.958Z,100325.97
2019-03-29T22:02:58.300Z,100323.25
2019-03-29T22:05:30.887Z,100321.98
2019-03-29T22:08:04.459Z,100323.41
2019-03-29T22:10:37.882Z,100314.03
2019-03-29T22:13:10.178Z,100314.70
2019-03-29T22:15:42.504Z,100310.88
2019-03-29T22:18:14.922Z,100309.80
2019-03-29T22:20:47.576Z,100305.86
2019-03-29T22:23:19.986Z,100303.34
2019-03-29T22:25:52.639Z,100301.25
2019-03-29T22:28:24.978Z,100301.55
2019-03-29T22:30:57.326Z,100303.05
2019-03-29T22:33:29.603Z,100308.11
2019-03-29T22:36:02.250Z,100309.89
2019-03-29T22:38:34.576Z,100309.67
2019-03-29T22:41:07.377Z,100301.55
2019-03-29T22:43:39.725Z,100305.13
2019-03-29T22:46:12.097Z,100308.58
2019-03-29T22:48:52.196Z,100309.93
2019-03-29T22:51:18.370Z,100308.37
2019-03-29T22:53:51.013Z,100307.19
2019-03-29T22:56:23.294Z,100297.42
2019-03-29T22:58:55.552Z,100299.61
2019-03-29T23:01:27.813Z,100307.39
2019-03-29T23:04:03.436Z,100307.00
2019-03-29T23:06:34.418Z,100304.70
2019-03-29T23:09:11.499Z,100309.03
2019-03-29T23:11:42.073Z,100305.02
2019-03-29T23:14:14.346Z,100303.73
2019-03-29T23:16:46.699Z,100305.63
2019-03-29T23:19:19.048Z,100300.39
2019-03-29T23:21:51.444Z,100300.39
2019-03-29T23:24:23.704Z,100302.77
2019-03-29T23:26:55.977Z,100304.00
2019-03-29T23:29:28.251Z,100307.78
2019-03-29T23:32:00.731Z,100305.03
2019-03-29T23:34:33.006Z,100310.39
2019-03-29T23:37:05.365Z,100307.53
2019-03-29T23:39:37.696Z,100303.77
2019-03-29T23:42:09.971Z,100301.84
2019-03-29T23:44:42.283Z,100303.92
2019-03-29T23:47:14.595Z,100295.69
2019-03-29T23:49:47.193Z,100304.19
2019-03-29T23:52:19.657Z,100306.70
2019-03-29T23:54:51.928Z,100298.82
2019-03-29T23:57:24.185Z,100294.31
2019-03-29T23:59:56.467Z,100295.69
